Hinesburg, VT

1:46 PM EST on December 10, 2016 (GMT -0500)
Mulligan Drive | | Change Station

Elev 515 ft 44.30 °N, 73.07 °W | Updated 9 seconds ago

Overcast
Overcast
22.0 °F
Feels Like 22 °F
N
2.3
Wind Variable Wind from ENE
Gusts 2.3 mph

Today
High -- | Low -- °F
--% Chance of Precip.
Yesterday
High -- | Low -- °F
Precip. -- in
Pressure 30.32 in
Visibility 10.0 miles
Clouds Overcast 5000 ft
Windchill 22 °F
Dew Point 9 °F
Humidity 57%
Rainfall 0.00 in
Snow Depth Not available.
7:17 AM 4:13 PM
Waxing Gibbous, 85% visible
METAR KBTV 101754Z 32009KT 10SM -SN OVC050 M05/M14 A3030 RMK AO2 SNE15B54 SLP266 P0000 60000 T10501144 11050 21067 56014
Pressure 30.32 in
Visibility 10.0 miles
Clouds Overcast 5000 ft
Windchill 22 °F
Dew Point 9 °F
Humidity 57%
Rainfall 0.00 in
Snow Depth Not available.
7:17 AM 4:13 PM
Waxing Gibbous, 85% visible
METAR KBTV 101754Z 32009KT 10SM -SN OVC050 M05/M14 A3030 RMK AO2 SNE15B54 SLP266 P0000 60000 T10501144 11050 21067 56014

10-Day Weather Forecast

Almanac

Astronomy

Dec. 10, 2016 Rise Set
Actual Time
Civil Twilight
Nautical Twilight
Astronomical Twilight
Moon
Length of Visible Light
Length of Day
Tomorrow will be .
, % of the Moon is Illuminated

Today's Extremes

State Highs State Lows

Community

WunderPhotos

Upload Photos

1,956,620 photos uploaded!

WunderBlog® & News

Nearby

Air Quality

  Air Quality AQ Index Pollutant
Not available.

Snow Depth

Station Depth Elevation

Earthquake Activity

City Distance Mag. Time & Date
Minimum magnitude displayed is 2.5.

Coastal Water Temperatures

Place Temperature

Stations

Nearby Weather Stations

Station Location Temp. Windchill Dew Point Humidity Wind Precip. Elev Updated Type
                   

Watches & Warnings

There are currently no watches in effect.